createdAt,value
2023-03-24T00:03:27.000Z,2.30
2023-03-24T00:13:27.000Z,1.20
2023-03-24T00:23:27.000Z,1.30
2023-03-24T00:33:26.000Z,1.40
2023-03-24T00:43:26.000Z,1.40
2023-03-24T00:53:26.000Z,1.60
2023-03-24T01:03:26.000Z,2.00
2023-03-24T01:13:26.000Z,2.30
2023-03-24T01:23:26.000Z,2.60
2023-03-24T01:33:26.000Z,2.40
2023-03-24T01:43:26.000Z,2.80
2023-03-24T01:53:26.000Z,3.10
2023-03-24T02:03:26.000Z,2.90
2023-03-24T02:13:25.000Z,2.90
2023-03-24T02:23:25.000Z,2.90
2023-03-24T02:33:25.000Z,3.20
2023-03-24T02:43:25.000Z,4.10
2023-03-24T02:53:25.000Z,5.70
2023-03-24T03:03:25.000Z,5.20
2023-03-24T03:13:25.000Z,5.60
2023-03-24T03:23:25.000Z,4.80
2023-03-24T03:33:25.000Z,3.70
2023-03-24T03:43:25.000Z,4.00
2023-03-24T03:53:25.000Z,3.90
2023-03-24T04:03:24.000Z,3.60
2023-03-24T04:13:24.000Z,3.60
2023-03-24T04:23:24.000Z,3.10
2023-03-24T04:33:24.000Z,3.60
2023-03-24T04:43:24.000Z,3.40
2023-03-24T04:53:24.000Z,3.30
2023-03-24T05:03:24.000Z,3.20
2023-03-24T05:13:24.000Z,2.90
2023-03-24T05:23:24.000Z,3.00
2023-03-24T05:33:24.000Z,3.00
2023-03-24T05:43:23.000Z,3.10
2023-03-24T05:53:23.000Z,3.20
2023-03-24T06:03:23.000Z,2.80
2023-03-24T06:13:23.000Z,12.70
2023-03-24T06:23:23.000Z,5.80
2023-03-24T06:33:23.000Z,3.90
2023-03-24T06:43:23.000Z,6.40
2023-03-24T06:53:23.000Z,6.70
2023-03-24T07:03:23.000Z,5.70
2023-03-24T07:13:23.000Z,10.90
2023-03-24T07:23:22.000Z,2.90
2023-03-24T07:33:22.000Z,2.70
2023-03-24T07:43:22.000Z,2.20
2023-03-24T07:53:22.000Z,2.20
2023-03-24T08:03:22.000Z,2.20
2023-03-24T08:13:22.000Z,1.60
2023-03-24T08:23:22.000Z,2.10
2023-03-24T08:33:22.000Z,1.30
2023-03-24T08:43:22.000Z,1.50
2023-03-24T08:53:22.000Z,1.40
2023-03-24T09:03:21.000Z,0.90
2023-03-24T09:13:21.000Z,1.00
2023-03-24T09:23:21.000Z,1.20
2023-03-24T09:33:21.000Z,1.10
2023-03-24T09:43:21.000Z,1.00
2023-03-24T09:53:21.000Z,0.90
2023-03-24T10:03:21.000Z,0.70
2023-03-24T10:13:21.000Z,1.00
2023-03-24T10:23:21.000Z,0.90
2023-03-24T10:33:21.000Z,0.90
2023-03-24T10:43:20.000Z,0.80
2023-03-24T10:53:20.000Z,0.80
2023-03-24T11:03:20.000Z,0.70
2023-03-24T11:13:20.000Z,0.60
2023-03-24T11:23:20.000Z,0.90
2023-03-24T11:23:20.000Z,0.90
2023-03-24T11:33:20.000Z,0.70
2023-03-24T11:43:20.000Z,0.90
2023-03-24T11:53:20.000Z,1.10
2023-03-24T12:03:20.000Z,1.30
2023-03-24T12:03:20.000Z,1.30
2023-03-24T12:13:20.000Z,0.80
2023-03-24T12:23:20.000Z,1.00
2023-03-24T12:33:19.000Z,1.80
2023-03-24T12:43:19.000Z,1.40
2023-03-24T12:53:19.000Z,1.30
2023-03-24T13:03:19.000Z,1.30
2023-03-24T13:13:19.000Z,1.20
2023-03-24T13:23:19.000Z,1.20
2023-03-24T13:33:19.000Z,0.90
2023-03-24T13:43:19.000Z,1.30
2023-03-24T13:53:19.000Z,1.50
2023-03-24T14:03:19.000Z,3.20
2023-03-24T14:13:18.000Z,1.60
2023-03-24T14:23:18.000Z,1.40
2023-03-24T14:33:18.000Z,1.40
2023-03-24T14:43:18.000Z,1.70
2023-03-24T14:53:18.000Z,1.50
2023-03-24T15:03:18.000Z,1.30
2023-03-24T15:13:18.000Z,1.10
2023-03-24T15:23:18.000Z,1.30
2023-03-24T15:33:18.000Z,1.40
2023-03-24T15:43:18.000Z,1.90
2023-03-24T15:53:17.000Z,1.40
2023-03-24T16:03:17.000Z,1.60
2023-03-24T16:13:17.000Z,1.70
2023-03-24T16:23:17.000Z,1.90
2023-03-24T16:33:17.000Z,2.00
2023-03-24T16:43:17.000Z,2.60
2023-03-24T16:53:17.000Z,3.40
2023-03-24T17:03:17.000Z,4.10
2023-03-24T17:13:17.000Z,2.70
2023-03-24T17:23:17.000Z,3.30
2023-03-24T17:33:16.000Z,3.20
2023-03-24T17:43:16.000Z,4.30
2023-03-24T17:53:16.000Z,3.30
2023-03-24T18:03:16.000Z,3.20
2023-03-24T18:13:16.000Z,3.20
2023-03-24T18:43:33.000Z,3.50
2023-03-24T18:43:33.000Z,4.00
2023-03-24T18:53:33.000Z,4.00
2023-03-24T19:03:33.000Z,3.80
2023-03-24T19:13:33.000Z,3.50
2023-03-24T19:23:33.000Z,5.40
2023-03-24T19:33:33.000Z,3.90
2023-03-24T19:43:32.000Z,4.60
2023-03-24T19:53:32.000Z,5.90
2023-03-24T20:03:32.000Z,3.50
2023-03-24T20:13:32.000Z,6.50
2023-03-24T20:23:32.000Z,2.30
2023-03-24T20:33:32.000Z,2.50
2023-03-24T20:43:32.000Z,2.40
2023-03-24T20:53:32.000Z,2.50
2023-03-24T21:03:32.000Z,2.60
2023-03-24T21:13:32.000Z,1.80
2023-03-24T21:23:31.000Z,1.90
2023-03-24T21:33:31.000Z,2.90
2023-03-24T21:43:31.000Z,2.90
2023-03-24T21:53:31.000Z,3.80
2023-03-24T22:03:31.000Z,4.00
2023-03-24T22:13:31.000Z,4.70
2023-03-24T22:23:31.000Z,4.10
2023-03-24T22:33:31.000Z,3.30
2023-03-24T22:43:31.000Z,3.80
2023-03-24T22:53:31.000Z,4.20
2023-03-24T23:03:30.000Z,4.20
2023-03-24T23:13:30.000Z,4.80
2023-03-24T23:23:30.000Z,3.90
2023-03-24T23:33:30.000Z,4.00
2023-03-24T23:43:30.000Z,3.90
2023-03-24T23:53:30.000Z,3.40
